Time;durP1;ratioP1;P1;durP2;ratioP2;P2;SDS_P1;SDS_P2;PMS_P1;PMS_P2;Temp;Humidity;BMP_temperature;BMP_pressure;BME280_temperature;BME280_humidity;BME280_pressure;Samples;Min_cycle;Max_cycle;Signal;HPM_P1;HPM_P2
2023/07/31 00:01:18;;;;;;;4.80;3.70;;;;;;;19.56;90.92;99063.34;106065;1254;60732;-76
2023/07/31 00:03:45;;;;;;;5.10;4.30;;;;;;;19.55;90.96;99062.23;106187;1253;60077;-76
2023/07/31 00:06:12;;;;;;;6.40;4.30;;;;;;;19.47;91.35;99059.67;106358;1255;72115;-75
2023/07/31 00:08:39;;;;;;;4.60;4.00;;;;;;;19.40;91.47;99064.89;106924;1257;69047;-76
2023/07/31 00:11:06;;;;;;;4.40;3.60;;;;;;;19.42;91.70;99063.78;106470;1254;72693;-75
2023/07/31 00:13:32;;;;;;;7.40;4.30;;;;;;;19.44;91.78;99059.13;107049;1252;59637;-73
2023/07/31 00:15:59;;;;;;;4.50;4.10;;;;;;;19.40;92.04;99059.23;107376;1252;59525;-74
2023/07/31 00:18:26;;;;;;;4.60;4.10;;;;;;;19.35;92.32;99060.95;107438;1254;71475;-76
2023/07/31 00:20:53;;;;;;;5.20;3.70;;;;;;;19.35;92.07;99063.88;108681;1254;70702;-76
2023/07/31 00:23:19;;;;;;;4.50;4.00;;;;;;;19.36;91.95;99057.73;107492;1254;71156;-76
2023/07/31 00:25:46;;;;;;;4.50;4.10;;;;;;;19.30;92.10;99052.10;106117;1254;60473;-78
2023/07/31 00:28:12;;;;;;;5.20;4.00;;;;;;;19.25;92.27;99048.77;105979;1257;60389;-76
2023/07/31 00:30:39;;;;;;;4.30;3.80;;;;;;;19.28;92.12;99051.13;105931;1257;72426;-78
2023/07/31 00:33:06;;;;;;;5.20;3.80;;;;;;;19.29;92.28;99052.09;106029;1255;70351;-76
2023/07/31 00:35:32;;;;;;;4.30;3.90;;;;;;;19.24;92.76;99052.48;106005;1254;72564;-75
2023/07/31 00:37:59;;;;;;;4.40;3.70;;;;;;;19.20;92.94;99053.79;106023;1257;60356;-74
2023/07/31 00:40:26;;;;;;;4.40;4.00;;;;;;;19.23;93.14;99051.10;105847;1256;60623;-75
2023/07/31 00:42:52;;;;;;;4.10;3.70;;;;;;;19.26;93.37;99049.55;105977;1256;72609;-75
2023/07/31 00:45:20;;;;;;;4.80;4.20;;;;;;;19.23;93.55;99050.70;105866;1254;70312;-77
2023/07/31 00:47:47;;;;;;;4.40;4.00;;;;;;;19.24;93.46;99054.10;106346;1254;72624;-76
2023/07/31 00:50:13;;;;;;;4.00;3.70;;;;;;;19.29;93.25;99060.59;107805;1253;62455;-77
2023/07/31 00:52:40;;;;;;;4.50;4.10;;;;;;;19.33;93.03;99058.17;107487;1259;60267;-75
2023/07/31 00:55:07;;;;;;;4.70;4.20;;;;;;;19.28;93.34;99057.14;105960;1254;71834;-78
2023/07/31 00:57:34;;;;;;;4.90;4.10;;;;;;;19.22;93.78;99054.77;105893;1255;68792;-78
2023/07/31 01:00:00;;;;;;;4.60;3.90;;;;;;;19.24;93.68;99055.27;105928;1257;71191;-78
2023/07/31 01:02:27;;;;;;;6.40;4.50;;;;;;;19.26;93.72;99057.09;105991;1257;60543;-76
2023/07/31 01:04:54;;;;;;;5.50;4.80;;;;;;;19.24;94.15;99058.66;105871;1257;60425;-77
2023/07/31 01:07:26;;;;;;;4.80;4.10;;;;;;;19.22;94.37;99057.14;105865;1260;73833;-76
2023/07/31 01:09:58;;;;;;;4.80;4.10;;;;;;;19.28;94.25;99061.77;106072;1257;70134;-77
2023/07/31 01:12:24;;;;;;;4.90;4.40;;;;;;;19.35;94.08;99066.30;105885;1256;71515;-77
2023/07/31 01:15:13;;;;;;;5.80;4.90;;;;;;;19.35;93.75;99062.37;106193;1257;60464;-76
2023/07/31 01:17:42;;;;;;;4.90;4.40;;;;;;;19.30;93.86;99059.48;107807;1254;60386;-77
2023/07/31 01:20:17;;;;;;;4.60;4.00;;;;;;;19.34;94.01;99057.49;108757;1254;72613;-78
2023/07/31 01:23:18;;;;;;;5.00;4.50;;;;;;;19.38;93.88;99052.95;107511;1257;70317;-77
2023/07/31 01:26:05;;;;;;;4.60;4.20;;;;;;;19.36;93.68;99051.36;105893;1257;72411;-75
2023/07/31 01:28:40;;;;;;;6.40;4.50;;;;;;;19.34;93.59;99048.17;105827;1254;62011;-76
2023/07/31 01:31:07;;;;;;;4.90;4.40;;;;;;;19.36;93.36;99050.11;106038;1256;60380;-75
2023/07/31 01:33:35;;;;;;;5.70;5.10;;;;;;;19.37;93.23;99056.81;105636;1254;72906;-75
2023/07/31 01:36:02;;;;;;;4.60;4.10;;;;;;;19.32;93.16;99062.30;105990;1254;70345;-75
2023/07/31 01:38:28;;;;;;;4.60;4.20;;;;;;;19.24;93.00;99062.81;105962;1259;71469;-77
2023/07/31 01:40:56;;;;;;;4.80;4.30;;;;;;;19.23;92.90;99058.77;106252;1254;61851;-75
2023/07/31 01:43:25;;;;;;;6.00;4.50;;;;;;;19.22;93.26;99054.53;106380;1256;60530;-76
2023/07/31 01:45:52;;;;;;;5.70;5.20;;;;;;;19.15;93.36;99054.35;106293;1252;72253;-79
2023/07/31 01:48:19;;;;;;;5.10;4.60;;;;;;;19.05;93.70;99051.21;107090;1254;68943;-75
2023/07/31 01:50:46;;;;;;;5.10;4.60;;;;;;;19.00;94.05;99053.80;108923;1254;71122;-78
2023/07/31 01:53:13;;;;;;;5.20;4.70;;;;;;;19.00;94.43;99057.41;107064;1257;60513;-77
2023/07/31 01:55:39;;;;;;;6.10;5.30;;;;;;;18.97;94.93;99057.89;105956;1256;60430;-78
2023/07/31 01:58:07;;;;;;;5.80;5.00;;;;;;;18.90;95.33;99058.41;105892;1260;74009;-77
2023/07/31 02:00:34;;;;;;;5.50;5.00;;;;;;;18.91;95.20;99057.73;105983;1256;70367;-76
2023/07/31 02:03:01;;;;;;;6.60;5.10;;;;;;;18.90;95.29;99060.23;105891;1256;74334;-73
2023/07/31 02:05:28;;;;;;;5.30;4.90;;;;;;;18.84;95.68;99061.56;106249;1254;60597;-74
2023/07/31 02:07:55;;;;;;;5.40;4.90;;;;;;;18.79;96.27;99069.61;106270;1253;60510;-75
2023/07/31 02:10:26;;;;;;;5.00;4.50;;;;;;;18.84;96.28;99067.80;106301;1256;73787;-74
2023/07/31 02:12:53;;;;;;;7.90;5.60;;;;;;;18.87;96.02;99072.92;106151;1254;61101;-72
2023/07/31 02:15:21;;;;;;;8.40;5.50;;;;;;;18.82;96.16;99074.30;106947;1256;73572;-73
2023/07/31 02:17:47;;;;;;;5.60;5.00;;;;;;;18.78;96.63;99071.63;108105;1254;61862;-74
2023/07/31 02:20:14;;;;;;;6.30;5.40;;;;;;;18.82;96.90;99069.98;109003;1253;58885;-74
2023/07/31 02:22:41;;;;;;;8.50;4.90;;;;;;;18.89;96.89;99070.39;107695;1256;73864;-74
2023/07/31 02:25:08;;;;;;;5.60;5.20;;;;;;;18.94;97.32;99071.23;106434;1257;70155;-73
2023/07/31 02:27:34;;;;;;;5.40;4.90;;;;;;;18.98;97.48;99072.12;106281;1255;72674;-76
2023/07/31 02:30:01;;;;;;;6.50;5.80;;;;;;;19.07;97.24;99069.81;106817;1257;61775;-74
2023/07/31 02:32:28;;;;;;;9.10;8.00;;;;;;;19.16;96.96;99066.16;106730;1254;60533;-74
2023/07/31 02:34:55;;;;;;;9.20;8.40;;;;;;;19.20;96.72;99064.71;106763;1255;73753;-74
2023/07/31 02:37:22;;;;;;;11.40;8.90;;;;;;;19.20;96.88;99063.27;107126;1254;70200;-75
2023/07/31 02:39:49;;;;;;;9.00;7.90;;;;;;;19.28;96.64;99064.14;106786;1256;73649;-76
2023/07/31 02:42:16;;;;;;;9.10;8.30;;;;;;;19.36;96.42;99066.21;107016;1257;62024;-74
2023/07/31 02:44:42;;;;;;;9.90;9.00;;;;;;;19.38;96.01;99064.25;107331;1256;60328;-74
2023/07/31 02:47:10;;;;;;;8.30;7.50;;;;;;;19.34;95.77;99061.92;108227;1254;74004;-75
2023/07/31 02:49:36;;;;;;;8.40;7.70;;;;;;;19.34;95.22;99062.34;109234;1254;69398;-75
2023/07/31 02:52:03;;;;;;;8.70;8.00;;;;;;;19.34;95.26;99064.73;109218;1254;71143;-76
2023/07/31 02:54:30;;;;;;;10.90;8.80;;;;;;;19.36;95.67;99067.07;109595;1254;57954;-77
2023/07/31 02:56:57;;;;;;;11.10;10.00;;;;;;;19.36;95.74;99070.41;109474;1252;59363;-75
2023/07/31 02:59:25;;;;;;;13.00;10.60;;;;;;;19.40;95.45;99067.14;109341;1252;72324;-77
2023/07/31 03:01:56;;;;;;;13.60;10.00;;;;;;;19.43;95.32;99064.55;109366;1254;68387;-75
2023/07/31 03:04:23;;;;;;;12.10;9.70;;;;;;;19.43;95.55;99066.23;109132;1252;71044;-77
2023/07/31 03:06:49;;;;;;;11.20;9.80;;;;;;;19.41;95.86;99068.40;109421;1252;60974;-75
2023/07/31 03:09:16;;;;;;;17.30;9.00;;;;;;;19.48;96.13;99074.66;109236;1253;58960;-74
2023/07/31 03:11:43;;;;;;;12.60;10.00;;;;;;;19.54;95.63;99081.77;109425;1254;73142;-75
2023/07/31 03:14:11;;;;;;;18.90;9.30;;;;;;;19.53;95.68;99084.94;109348;1253;68972;-75
2023/07/31 03:16:39;;;;;;;15.60;9.20;;;;;;;19.52;95.85;99083.82;109180;1254;71917;-75
2023/07/31 03:19:06;;;;;;;10.90;9.70;;;;;;;19.57;95.96;99082.85;109374;1252;60483;-77
2023/07/31 03:21:32;;;;;;;17.70;8.90;;;;;;;19.64;95.61;99080.80;109454;1253;59165;-71
2023/07/31 03:23:59;;;;;;;19.00;9.00;;;;;;;19.65;95.71;99083.58;109254;1252;73089;-72
2023/07/31 03:26:26;;;;;;;21.00;7.90;;;;;;;19.63;95.87;99085.95;109281;1254;69291;-74
2023/07/31 03:28:53;;;;;;;15.60;8.30;;;;;;;19.61;95.56;99087.83;109417;1253;71645;-73
2023/07/31 03:31:20;;;;;;;13.50;7.90;;;;;;;19.64;95.33;99094.02;109371;1253;61081;-73
2023/07/31 03:33:46;;;;;;;11.90;8.20;;;;;;;19.67;95.08;99089.86;109438;1254;59624;-74
2023/07/31 03:36:13;;;;;;;10.10;8.50;;;;;;;19.62;94.70;99090.95;109376;1254;72546;-73
2023/07/31 03:38:40;;;;;;;8.60;7.80;;;;;;;19.55;94.87;99093.36;109509;1254;68809;-72
2023/07/31 03:41:10;;;;;;;8.20;7.40;;;;;;;19.57;95.06;99097.55;109297;1253;71606;-73
2023/07/31 03:43:37;;;;;;;8.90;7.90;;;;;;;19.57;94.52;99101.71;109006;1253;60503;-73
2023/07/31 03:46:04;;;;;;;8.60;7.90;;;;;;;19.49;94.03;99100.88;108572;1253;60389;-73
2023/07/31 03:48:31;;;;;;;8.10;7.40;;;;;;;19.38;94.39;99097.48;108035;1254;72532;-75
2023/07/31 03:50:59;;;;;;;8.20;7.40;;;;;;;19.34;94.86;99093.80;108132;1254;69548;-77
2023/07/31 03:53:26;;;;;;;8.60;7.70;;;;;;;19.40;95.05;99092.03;106420;1254;71294;-75
2023/07/31 03:55:52;;;;;;;9.50;8.60;;;;;;;19.48;94.88;99092.66;106007;1258;60786;-74
2023/07/31 03:58:19;;;;;;;9.20;8.40;;;;;;;19.49;95.02;99099.45;106051;1257;60526;-77
2023/07/31 04:00:46;;;;;;;9.20;8.30;;;;;;;19.50;95.30;99106.98;105977;1254;72475;-76
2023/07/31 04:03:13;;;;;;;9.40;8.50;;;;;;;19.54;94.45;99105.91;106027;1254;70180;-78
2023/07/31 04:05:40;;;;;;;9.60;8.70;;;;;;;19.51;94.46;99104.92;106039;1257;72637;-77
2023/07/31 04:08:07;;;;;;;12.00;10.80;;;;;;;19.52;95.20;99104.41;105976;1255;60543;-77
2023/07/31 04:10:33;;;;;;;9.90;9.00;;;;;;;19.52;95.19;99097.35;106119;1254;60441;-77
2023/07/31 04:13:01;;;;;;;7.80;7.10;;;;;;;19.53;94.91;99104.27;105971;1257;74640;-77
2023/07/31 04:15:27;;;;;;;8.60;7.80;;;;;;;19.58;94.46;99103.65;105939;1254;70389;-75
2023/07/31 04:17:54;;;;;;;7.00;6.40;;;;;;;19.62;94.35;99106.32;107836;1254;71393;-74
2023/07/31 04:20:21;;;;;;;6.90;6.20;;;;;;;19.64;94.28;99103.88;107462;1254;60103;-75
2023/07/31 04:22:48;;;;;;;6.30;5.80;;;;;;;19.64;94.24;99100.53;106890;1258;60460;-77
2023/07/31 04:25:15;;;;;;;6.80;6.20;;;;;;;19.70;93.65;99103.34;105917;1257;72348;-75
2023/07/31 04:27:42;;;;;;;9.80;8.90;;;;;;;19.76;93.65;99106.95;106025;1254;70292;-76
2023/07/31 04:30:09;;;;;;;7.70;6.90;;;;;;;19.77;93.62;99105.43;105920;1254;71150;-78
2023/07/31 04:32:35;;;;;;;7.70;7.00;;;;;;;19.79;93.75;99109.77;106037;1253;62381;-76
2023/07/31 04:35:03;;;;;;;8.00;6.70;;;;;;;19.85;93.19;99112.07;105982;1253;60457;-77
2023/07/31 04:37:30;;;;;;;6.50;5.90;;;;;;;19.92;92.92;99114.12;106029;1254;73861;-74
2023/07/31 04:39:57;;;;;;;5.80;5.30;;;;;;;19.90;91.91;99117.11;105777;1257;71008;-78
2023/07/31 04:42:23;;;;;;;6.20;5.40;;;;;;;19.78;91.62;99115.45;105935;1256;71689;-79
2023/07/31 04:44:50;;;;;;;5.30;4.80;;;;;;;19.71;91.62;99116.99;107159;1254;62099;-76
2023/07/31 04:47:17;;;;;;;5.60;5.10;;;;;;;19.76;92.14;99117.04;107285;1254;60337;-77
2023/07/31 04:49:43;;;;;;;5.20;4.70;;;;;;;19.82;91.96;99117.36;107485;1254;72560;-75
2023/07/31 04:52:10;;;;;;;5.60;4.90;;;;;;;19.82;92.13;99119.30;107225;1257;70082;-76
2023/07/31 04:54:38;;;;;;;5.50;5.00;;;;;;;19.78;92.13;99119.52;106188;1254;73167;-77
2023/07/31 04:57:05;;;;;;;5.50;5.00;;;;;;;19.82;91.93;99121.25;106207;1256;60722;-77
2023/07/31 04:59:32;;;;;;;5.70;4.40;;;;;;;19.87;91.92;99129.09;106466;1254;60527;-78
2023/07/31 05:01:58;;;;;;;5.50;4.90;;;;;;;19.86;92.48;99129.56;105931;1257;72495;-77
2023/07/31 05:04:25;;;;;;;5.40;5.00;;;;;;;19.83;92.55;99132.64;106053;1254;70787;-78
2023/07/31 05:06:52;;;;;;;4.70;4.30;;;;;;;19.88;92.52;99132.33;106176;1257;72748;-79
2023/07/31 05:09:19;;;;;;;5.90;5.40;;;;;;;19.95;92.62;99128.95;106096;1254;60331;-82
2023/07/31 05:11:45;;;;;;;5.30;4.90;;;;;;;19.99;93.02;99135.01;106256;1257;60377;-79
2023/07/31 05:14:15;;;;;;;6.40;5.80;;;;;;;19.99;92.03;99136.19;106149;1257;72617;-81
2023/07/31 05:16:42;;;;;;;6.30;5.60;;;;;;;19.96;92.28;99136.41;107205;1256;70217;-78
2023/07/31 05:19:09;;;;;;;7.10;6.50;;;;;;;20.05;92.09;99140.27;107483;1254;71382;-78
2023/07/31 05:21:36;;;;;;;8.30;7.50;;;;;;;20.16;91.99;99146.11;108881;1254;60435;-77
2023/07/31 05:24:03;;;;;;;6.80;6.30;;;;;;;20.22;92.10;99145.07;106823;1254;60536;-79
2023/07/31 05:26:30;;;;;;;8.80;7.90;;;;;;;20.26;92.14;99147.77;106439;1254;74330;-79
2023/07/31 05:28:58;;;;;;;7.90;7.10;;;;;;;20.33;91.97;99149.40;107544;1254;70217;-79
2023/07/31 05:31:25;;;;;;;8.00;7.00;;;;;;;20.46;91.72;99152.83;107793;1257;71225;-77
2023/07/31 05:33:52;;;;;;;8.80;8.00;;;;;;;20.55;91.50;99153.66;107491;1255;60507;-78
2023/07/31 05:36:18;;;;;;;9.20;8.40;;;;;;;20.56;90.86;99158.65;106608;1254;60178;-77
2023/07/31 05:38:45;;;;;;;9.10;7.60;;;;;;;20.56;91.27;99159.88;106772;1257;73985;-79
2023/07/31 05:41:13;;;;;;;8.80;7.90;;;;;;;20.67;90.95;99158.55;106582;1254;70115;-78
2023/07/31 05:43:40;;;;;;;9.10;7.80;;;;;;;20.74;89.84;99156.92;106374;1256;72419;-81
2023/07/31 05:46:06;;;;;;;9.40;8.60;;;;;;;20.74;90.29;99156.11;106699;1254;60635;-78
2023/07/31 05:48:36;;;;;;;10.30;9.20;;;;;;;20.75;90.21;99153.36;107385;1253;60453;-82
2023/07/31 05:51:03;;;;;;;8.90;8.20;;;;;;;20.81;89.98;99151.83;108745;1254;72459;-80
2023/07/31 05:53:30;;;;;;;9.00;8.10;;;;;;;20.92;89.60;99151.50;107665;1254;70359;-79
2023/07/31 05:55:57;;;;;;;8.50;7.80;;;;;;;20.98;89.42;99150.87;106968;1254;72602;-79
2023/07/31 05:58:25;;;;;;;9.40;8.50;;;;;;;21.01;89.23;99151.41;107023;1254;60446;-79
2023/07/31 06:00:51;;;;;;;9.70;8.50;;;;;;;21.05;89.06;99148.85;106597;1256;60405;-79
2023/07/31 06:03:18;;;;;;;9.20;8.30;;;;;;;21.15;88.96;99148.42;106439;1254;73760;-78
2023/07/31 06:05:45;;;;;;;10.50;9.30;;;;;;;21.24;88.60;99153.45;106576;1255;70413;-77
2023/07/31 06:08:12;;;;;;;10.10;9.10;;;;;;;21.25;88.05;99151.56;106743;1254;72456;-78
2023/07/31 06:10:39;;;;;;;9.60;8.80;;;;;;;21.23;88.34;99154.95;107324;1253;60359;-81
2023/07/31 06:13:05;;;;;;;9.50;8.60;;;;;;;21.27;88.76;99152.84;107295;1253;60437;-76
2023/07/31 06:15:33;;;;;;;10.40;9.40;;;;;;;21.40;88.44;99155.36;106931;1256;75451;-80
2023/07/31 06:18:01;;;;;;;9.80;8.90;;;;;;;21.48;88.16;99154.71;107320;1256;70106;-75
2023/07/31 06:20:29;;;;;;;10.80;9.90;;;;;;;21.52;87.88;99156.33;107859;1252;72640;-77
2023/07/31 06:22:56;;;;;;;9.30;8.50;;;;;;;21.54;87.96;99162.08;107670;1253;60516;-79
2023/07/31 06:25:22;;;;;;;9.70;8.70;;;;;;;21.63;87.76;99159.64;106710;1256;60334;-79
2023/07/31 06:27:49;;;;;;;9.60;8.70;;;;;;;21.74;87.53;99157.85;106175;1256;73811;-81
2023/07/31 06:30:16;;;;;;;9.10;8.40;;;;;;;21.78;87.19;99161.98;106235;1254;68928;-79
2023/07/31 06:32:43;;;;;;;10.40;9.50;;;;;;;21.76;86.75;99166.09;106370;1254;73067;-78
2023/07/31 06:35:10;;;;;;;9.80;9.00;;;;;;;21.76;86.57;99167.98;106318;1254;60964;-78
2023/07/31 06:37:38;;;;;;;11.00;10.10;;;;;;;21.83;86.80;99167.50;106577;1253;60321;-78
2023/07/31 06:40:08;;;;;;;10.90;10.00;;;;;;;21.92;86.55;99173.05;106762;1254;73888;-83
2023/07/31 06:42:37;;;;;;;11.90;10.80;;;;;;;21.95;86.21;99174.45;107213;1253;69059;-83
2023/07/31 06:45:04;;;;;;;12.80;11.70;;;;;;;21.96;85.76;99174.70;107299;1256;72339;-84
2023/07/31 06:47:32;;;;;;;10.70;9.80;;;;;;;21.96;85.92;99178.50;107172;1257;61993;-83
2023/07/31 06:49:58;;;;;;;11.60;10.60;;;;;;;22.04;86.75;99181.61;107954;1254;60865;-82
2023/07/31 06:52:25;;;;;;;11.80;10.60;;;;;;;22.13;86.53;99184.96;109369;1252;72585;-81
2023/07/31 06:55:18;;;;;;;12.60;11.40;;;;;;;22.18;86.40;99184.74;107645;1254;70387;-79
2023/07/31 06:57:49;;;;;;;12.40;11.30;;;;;;;22.18;86.45;99182.36;108187;1254;71297;-81
2023/07/31 07:00:17;;;;;;;12.20;11.10;;;;;;;22.23;86.04;99181.01;106877;1252;60761;-81
2023/07/31 07:02:44;;;;;;;12.90;11.70;;;;;;;22.31;86.09;99182.34;106773;1254;60530;-83
2023/07/31 07:05:11;;;;;;;13.30;12.20;;;;;;;22.34;86.07;99182.79;107248;1252;73827;-84
2023/07/31 07:07:38;;;;;;;12.60;11.50;;;;;;;22.33;85.94;99182.08;106879;1254;70196;-82
2023/07/31 07:10:06;;;;;;;12.80;11.70;;;;;;;22.34;86.48;99177.54;106433;1256;72694;-80
2023/07/31 07:12:33;;;;;;;12.20;11.20;;;;;;;22.44;86.17;99179.08;106658;1253;63196;-80
2023/07/31 07:15:00;;;;;;;12.10;11.00;;;;;;;22.48;86.00;99178.27;107548;1254;60310;-82
2023/07/31 07:17:28;;;;;;;12.60;11.50;;;;;;;22.47;85.83;99173.30;107197;1253;72622;-83
2023/07/31 07:19:57;;;;;;;13.90;12.70;;;;;;;22.47;85.94;99180.94;107880;1253;69344;-79
2023/07/31 07:22:24;;;;;;;12.80;11.70;;;;;;;22.49;85.56;99178.98;107631;1254;71725;-82
2023/07/31 07:24:51;;;;;;;13.90;12.60;;;;;;;22.56;85.23;99172.88;106368;1254;61793;-82
2023/07/31 07:27:17;;;;;;;13.10;11.90;;;;;;;22.64;85.38;99173.52;106699;1256;60536;-81
2023/07/31 07:29:45;;;;;;;13.40;12.10;;;;;;;22.66;85.09;99173.33;106201;1257;74298;-80
2023/07/31 07:32:12;;;;;;;13.60;12.30;;;;;;;22.66;84.58;99168.99;106387;1254;70295;-83
2023/07/31 07:34:39;;;;;;;13.30;12.20;;;;;;;22.73;85.34;99170.05;106403;1256;72564;-81
2023/07/31 07:37:06;;;;;;;14.70;13.40;;;;;;;22.87;85.49;99174.73;106785;1254;60487;-79
2023/07/31 07:39:35;;;;;;;15.00;13.60;;;;;;;22.97;84.94;99178.73;107513;1252;60402;-81
2023/07/31 07:42:02;;;;;;;14.80;13.40;;;;;;;23.02;83.67;99180.56;107548;1256;73816;-81
2023/07/31 07:44:29;;;;;;;15.40;14.10;;;;;;;23.01;82.55;99182.45;106482;1254;70429;-80
2023/07/31 07:46:56;;;;;;;13.60;12.50;;;;;;;23.06;82.66;99183.30;106525;1254;72728;-82
2023/07/31 07:49:23;;;;;;;15.50;14.00;;;;;;;23.09;82.18;99180.85;107518;1253;60591;-82
2023/07/31 07:51:51;;;;;;;14.80;13.50;;;;;;;23.07;82.06;99180.93;109225;1253;58887;-80
2023/07/31 07:54:23;;;;;;;15.00;13.70;;;;;;;23.04;82.22;99177.45;107014;1254;72571;-79
2023/07/31 07:56:50;;;;;;;15.00;13.60;;;;;;;23.05;82.11;99173.05;106712;1256;68691;-83
2023/07/31 07:59:17;;;;;;;15.30;14.00;;;;;;;23.13;81.81;99171.20;106583;1254;72309;-83
2023/07/31 08:01:44;;;;;;;16.60;15.10;;;;;;;23.15;81.30;99172.62;106729;1251;60610;-81
2023/07/31 08:04:10;;;;;;;17.10;15.60;;;;;;;23.10;81.51;99170.38;106496;1254;60594;-80
2023/07/31 08:06:38;;;;;;;18.20;16.40;;;;;;;23.08;81.63;99173.02;106575;1258;73676;-81
2023/07/31 08:09:06;;;;;;;17.00;15.30;;;;;;;23.13;81.32;99175.42;106662;1254;68910;-81
2023/07/31 08:11:33;;;;;;;16.80;15.10;;;;;;;23.17;81.52;99174.64;106659;1256;72497;-81
2023/07/31 08:14:00;;;;;;;17.20;15.60;;;;;;;23.19;81.29;99171.17;106394;1254;60479;-82
2023/07/31 08:16:26;;;;;;;19.00;17.20;;;;;;;23.17;81.22;99169.65;106959;1253;60025;-82
2023/07/31 08:18:54;;;;;;;18.90;17.20;;;;;;;23.19;81.36;99170.84;107834;1253;72616;-79
2023/07/31 08:21:21;;;;;;;17.40;15.80;;;;;;;23.24;80.78;99174.34;108578;1252;69001;-82
2023/07/31 08:23:48;;;;;;;16.60;14.90;;;;;;;23.38;81.00;99173.63;109357;1253;71118;-80
2023/07/31 08:26:16;;;;;;;17.90;16.20;;;;;;;23.52;80.71;99169.49;107348;1254;59389;-81
2023/07/31 08:28:43;;;;;;;17.20;15.80;;;;;;;23.60;80.31;99175.80;108446;1252;59165;-78
2023/07/31 08:31:10;;;;;;;18.40;16.70;;;;;;;23.64;79.88;99182.42;106458;1253;241750;-80
2023/07/31 08:35:40;;;;;;;17.00;15.50;;;;;;;23.77;79.44;99180.09;103385;1295;600969;-82
2023/07/31 08:38:08;;;;;;;19.00;17.30;;;;;;;23.77;78.21;99176.05;105383;1272;59321;-81
2023/07/31 08:40:38;;;;;;;17.50;15.90;;;;;;;23.76;79.00;99178.23;105419;1267;60492;-80
2023/07/31 08:43:05;;;;;;;17.10;15.70;;;;;;;23.73;78.47;99182.73;105446;1267;72115;-79
2023/07/31 08:45:33;;;;;;;19.40;17.70;;;;;;;23.66;78.27;99178.10;105271;1271;70164;-79
2023/07/31 08:48:00;;;;;;;18.50;16.80;;;;;;;23.64;78.90;99177.00;105491;1272;71873;-82
2023/07/31 08:50:28;;;;;;;16.50;15.00;;;;;;;23.77;79.07;99179.16;105930;1267;194627;-79
2023/07/31 08:52:57;;;;;;;18.80;17.00;;;;;;;23.90;78.44;99179.25;108667;1263;59076;-82
2023/07/31 08:55:32;;;;;;;18.80;16.90;;;;;;;23.93;77.50;99187.11;108607;1264;71025;-80
2023/07/31 08:58:00;;;;;;;19.30;17.60;;;;;;;23.93;78.15;99187.38;107899;1263;68716;-79
2023/07/31 09:00:27;;;;;;;18.80;17.10;;;;;;;23.96;78.69;99191.69;108135;1264;73237;-79
2023/07/31 09:03:02;;;;;;;20.80;18.80;;;;;;;24.01;78.33;99193.14;105725;1263;59751;-79
2023/07/31 09:05:31;;;;;;;19.50;17.40;;;;;;;24.06;77.93;99193.52;106339;1264;60029;-80
2023/07/31 09:07:58;;;;;;;18.60;16.80;;;;;;;24.18;77.88;99194.13;106743;1269;71817;-81
2023/07/31 09:10:26;;;;;;;18.10;16.40;;;;;;;24.29;77.32;99194.45;105997;1266;69023;-81
2023/07/31 09:12:54;;;;;;;18.80;17.00;;;;;;;24.29;76.10;99197.66;105984;1260;71375;-81
2023/07/31 09:15:21;;;;;;;19.80;18.00;;;;;;;24.23;76.27;99197.23;105900;1266;60884;-82
2023/07/31 09:18:05;;;;;;;20.90;18.90;;;;;;;24.18;76.56;99192.35;105772;1260;60107;-82
2023/07/31 09:20:34;;;;;;;19.70;17.80;;;;;;;24.17;76.59;99194.02;106707;1260;71619;-82
2023/07/31 09:23:11;;;;;;;18.90;17.20;;;;;;;24.21;76.07;99197.50;108735;1259;68704;-80
2023/07/31 09:25:40;;;;;;;18.50;16.70;;;;;;;24.23;76.14;99198.86;107120;1253;73817;-82
2023/07/31 09:28:09;;;;;;;19.10;17.40;;;;;;;24.24;76.11;99196.70;106653;1257;59727;-81
2023/07/31 09:30:50;;;;;;;19.80;18.00;;;;;;;24.26;76.17;99198.54;106638;1256;60133;-81
2023/07/31 09:33:20;;;;;;;18.30;16.60;;;;;;;24.26;76.09;99199.35;107259;1251;73100;-79
2023/07/31 09:35:50;;;;;;;17.00;15.20;;;;;;;24.27;76.23;99197.93;107049;1254;69050;-80
2023/07/31 09:38:18;;;;;;;17.30;15.70;;;;;;;24.33;75.63;99196.36;107330;1253;72921;-80
2023/07/31 09:40:47;;;;;;;17.50;15.90;;;;;;;24.33;75.26;99200.54;106379;1253;59737;-79
2023/07/31 09:43:19;;;;;;;18.30;16.70;;;;;;;24.33;75.01;99205.96;106279;1253;60524;-78
2023/07/31 09:45:46;;;;;;;18.50;16.70;;;;;;;24.27;73.92;99206.63;106352;1257;73051;-78
2023/07/31 09:48:17;;;;;;;16.80;15.10;;;;;;;24.07;73.90;99204.23;106284;1260;68995;-81
2023/07/31 09:50:48;;;;;;;18.30;16.60;;;;;;;23.96;73.77;99200.69;108752;1253;72840;-80
2023/07/31 09:53:16;;;;;;;17.30;15.60;;;;;;;23.93;74.38;99200.57;109436;1252;60586;-81
2023/07/31 09:55:44;;;;;;;16.00;14.40;;;;;;;24.00;74.89;99199.45;106595;1252;59685;-79
2023/07/31 09:58:12;;;;;;;16.50;15.10;;;;;;;24.15;75.22;99194.08;106247;1254;71740;-79
2023/07/31 10:00:40;;;;;;;17.90;16.40;;;;;;;24.25;75.82;99186.74;106167;1254;68746;-82
2023/07/31 10:03:10;;;;;;;20.10;18.10;;;;;;;24.38;76.32;99181.91;106499;1254;71893;-79
2023/07/31 10:05:49;;;;;;;19.20;17.50;;;;;;;24.56;76.17;99175.57;107294;1254;60131;-78
2023/07/31 10:08:18;;;;;;;17.60;16.00;;;;;;;24.76;75.16;99173.85;107312;1259;59120;-77
2023/07/31 10:10:45;;;;;;;17.80;15.10;;;;;;;24.99;74.11;99174.48;107663;1253;71759;-78
2023/07/31 10:13:13;;;;;;;17.50;15.90;;;;;;;25.39;73.95;99173.79;108418;1254;70301;-76
2023/07/31 10:15:43;;;;;;;17.50;15.80;;;;;;;25.94;73.43;99175.27;108865;1254;73676;-75
2023/07/31 10:18:12;;;;;;;16.00;14.60;;;;;;;26.52;71.75;99175.78;108141;1253;59205;-75
2023/07/31 10:20:40;;;;;;;16.60;15.10;;;;;;;27.06;70.36;99172.16;108743;1253;60996;-76
2023/07/31 10:23:07;;;;;;;15.00;13.60;;;;;;;27.51;69.02;99176.58;109239;1253;73731;-77
2023/07/31 10:25:35;;;;;;;16.20;14.70;;;;;;;27.80;66.11;99168.70;107022;1254;69026;-77
2023/07/31 10:28:03;;;;;;;15.20;13.90;;;;;;;27.93;65.14;99167.43;106169;1254;71304;-79
2023/07/31 10:30:32;;;;;;;16.10;14.50;;;;;;;28.06;65.30;99164.54;106368;1254;59986;-77
2023/07/31 10:33:00;;;;;;;15.30;13.80;;;;;;;28.26;65.78;99162.02;106600;1253;59691;-78
2023/07/31 10:35:28;;;;;;;15.00;13.70;;;;;;;28.47;64.84;99156.48;106995;1254;73157;-76
2023/07/31 10:37:56;;;;;;;15.00;13.80;;;;;;;28.62;62.96;99154.48;106781;1254;70075;-78
2023/07/31 10:40:25;;;;;;;14.00;12.80;;;;;;;28.70;61.84;99155.09;106662;1253;72429;-79
2023/07/31 10:42:59;;;;;;;13.70;12.60;;;;;;;28.80;61.74;99153.10;107186;1253;60061;-77
2023/07/31 10:45:38;;;;;;;13.70;12.40;;;;;;;28.95;61.43;99154.48;107721;1254;60279;-78
2023/07/31 10:48:16;;;;;;;14.60;13.30;;;;;;;29.09;60.48;99151.43;107922;1253;71811;-78
2023/07/31 10:50:57;;;;;;;13.90;12.80;;;;;;;29.31;60.89;99151.97;109202;1254;69085;-81
2023/07/31 10:53:32;;;;;;;13.70;12.60;;;;;;;29.68;58.83;99156.47;108516;1256;71496;-79
2023/07/31 10:56:07;;;;;;;13.90;12.70;;;;;;;29.95;57.67;99160.65;106875;1257;59988;-79
2023/07/31 10:58:55;;;;;;;14.00;12.90;;;;;;;30.09;56.54;99159.66;107836;1252;59218;-80
2023/07/31 11:01:23;;;;;;;13.60;12.40;;;;;;;30.09;56.33;99159.82;109443;1253;74301;-78
2023/07/31 11:03:52;;;;;;;14.00;12.90;;;;;;;30.11;56.37;99157.42;109427;1253;68858;-80
2023/07/31 11:06:20;;;;;;;14.20;13.00;;;;;;;30.20;56.90;99155.06;109308;1253;71071;-79
2023/07/31 11:08:49;;;;;;;13.70;12.50;;;;;;;30.42;56.59;99153.86;109104;1252;58817;-79
2023/07/31 11:11:18;;;;;;;13.40;12.30;;;;;;;30.78;56.30;99154.23;109069;1252;58853;-80
2023/07/31 11:13:50;;;;;;;14.10;12.80;;;;;;;31.14;54.70;99151.19;109273;1253;71823;-80
2023/07/31 11:16:19;;;;;;;;;;;;;;;31.33;55.40;99150.45;109120;1253;72513;-78
2023/07/31 11:18:49;;;;;;;12.90;11.80;;;;;;;31.54;54.69;99156.05;109022;1252;72795;-79
2023/07/31 11:21:22;;;;;;;12.90;11.90;;;;;;;31.66;53.14;99153.05;109186;1254;61363;-76
2023/07/31 11:23:51;;;;;;;12.60;11.60;;;;;;;31.54;52.33;99148.20;109380;1253;60958;-77